Terminal Aerodrome Forecast
Issued by NWS Duluth, MN

Home | Current Version | Previous Version | Text Only | Print | Product List | Glossary On
Versions: 1 2 3 4 5 6 7 8 9 10 11 12 13 14 15 16 17 18 19 20 21 22 23 24 25 26
000
FTUS43 KDLH 290400 AAB
TAFDLH
TAF AMD
KDLH 290411Z 2904/2924 29007KT 1 1/2SM -FZDZSN BR OVC005
     FM291000 31014G26KT 5SM -SN BLSN SCT008 OVC018
     FM291900 30012G21KT P6SM OVC023=

USA.gov is the U.S. government's official web portal to all federal, state and local government web resources and services.